sensor_id;sensor_type;location;lat;lon;timestamp;pressure;altitude;pressure_sealevel;temperature;humidity
39891;BME280;25564;53.312;9.790;2024-03-02T00:00:26;99971.25;;;7.73;70.15
39891;BME280;25564;53.312;9.790;2024-03-02T00:02:58;99979.69;;;7.75;69.94
39891;BME280;25564;53.312;9.790;2024-03-02T00:05:30;99979.53;;;7.77;69.93
39891;BME280;25564;53.312;9.790;2024-03-02T00:08:04;99969.22;;;7.77;69.88
39891;BME280;25564;53.312;9.790;2024-03-02T00:10:40;99977.66;;;7.79;69.95
39891;BME280;25564;53.312;9.790;2024-03-02T00:13:12;99973.56;;;7.76;70.02
39891;BME280;25564;53.312;9.790;2024-03-02T00:15:47;99974.38;;;7.77;70.19
39891;BME280;25564;53.312;9.790;2024-03-02T00:18:23;99976.13;;;7.76;70.01
39891;BME280;25564;53.312;9.790;2024-03-02T00:20:56;99970.97;;;7.76;70.27
39891;BME280;25564;53.312;9.790;2024-03-02T00:23:31;99966.50;;;7.78;70.28
39891;BME280;25564;53.312;9.790;2024-03-02T00:26:05;99971.66;;;7.78;70.34
39891;BME280;25564;53.312;9.790;2024-03-02T00:28:39;99970.50;;;7.82;70.15
39891;BME280;25564;53.312;9.790;2024-03-02T00:31:13;99967.09;;;7.82;70.03
39891;BME280;25564;53.312;9.790;2024-03-02T00:33:47;99967.09;;;7.82;70.39
39891;BME280;25564;53.312;9.790;2024-03-02T00:36:25;99970.25;;;7.85;70.10
39891;BME280;25564;53.312;9.790;2024-03-02T00:39:01;99963.47;;;7.84;70.32
39891;BME280;25564;53.312;9.790;2024-03-02T00:41:33;99960.19;;;7.82;70.02
39891;BME280;25564;53.312;9.790;2024-03-02T00:44:06;99969.41;;;7.85;70.48
39891;BME280;25564;53.312;9.790;2024-03-02T00:46:43;99968.34;;;7.87;70.21
39891;BME280;25564;53.312;9.790;2024-03-02T00:49:25;99975.97;;;7.89;70.43
39891;BME280;25564;53.312;9.790;2024-03-02T00:52:00;99970.94;;;7.87;70.26
39891;BME280;25564;53.312;9.790;2024-03-02T00:54:32;99974.09;;;7.91;70.12
39891;BME280;25564;53.312;9.790;2024-03-02T00:57:04;99968.13;;;7.91;70.25
39891;BME280;25564;53.312;9.790;2024-03-02T00:59:36;99969.75;;;7.92;70.05
39891;BME280;25564;53.312;9.790;2024-03-02T01:02:08;99978.19;;;7.94;69.88
39891;BME280;25564;53.312;9.790;2024-03-02T01:04:40;99978.19;;;7.94;70.00
39891;BME280;25564;53.312;9.790;2024-03-02T01:07:15;99968.00;;;7.92;70.10
39891;BME280;25564;53.312;9.790;2024-03-02T01:09:47;99970.44;;;7.94;69.77
39891;BME280;25564;53.312;9.790;2024-03-02T01:12:18;99978.09;;;7.95;70.26
39891;BME280;25564;53.312;9.790;2024-03-02T01:14:50;99972.09;;;7.95;70.03
39891;BME280;25564;53.312;9.790;2024-03-02T01:17:22;99977.50;;;7.92;70.25
39891;BME280;25564;53.312;9.790;2024-03-02T01:19:54;99969.63;;;7.93;70.29
39891;BME280;25564;53.312;9.790;2024-03-02T01:22:25;99965.41;;;7.92;70.05
39891;BME280;25564;53.312;9.790;2024-03-02T01:24:57;99960.94;;;7.94;70.39
39891;BME280;25564;53.312;9.790;2024-03-02T01:27:31;99956.59;;;7.95;70.35
39891;BME280;25564;53.312;9.790;2024-03-02T01:30:03;99959.19;;;7.95;70.17
39891;BME280;25564;53.312;9.790;2024-03-02T01:32:35;99970.34;;;7.95;70.18
39891;BME280;25564;53.312;9.790;2024-03-02T01:35:06;99958.22;;;7.96;70.19
39891;BME280;25564;53.312;9.790;2024-03-02T01:37:39;99964.34;;;7.95;70.01
39891;BME280;25564;53.312;9.790;2024-03-02T01:40:12;99960.81;;;7.96;70.40
39891;BME280;25564;53.312;9.790;2024-03-02T01:42:43;99963.38;;;7.96;70.23
39891;BME280;25564;53.312;9.790;2024-03-02T01:45:15;99962.69;;;7.94;70.15
39891;BME280;25564;53.312;9.790;2024-03-02T01:47:47;99965.28;;;7.94;70.41
39891;BME280;25564;53.312;9.790;2024-03-02T01:50:29;99963.38;;;7.96;69.68
39891;BME280;25564;53.312;9.790;2024-03-02T01:53:02;99958.59;;;7.91;69.90
39891;BME280;25564;53.312;9.790;2024-03-02T01:55:35;99947.69;;;7.87;70.37
39891;BME280;25564;53.312;9.790;2024-03-02T01:58:07;99955.44;;;7.87;70.59
39891;BME280;25564;53.312;9.790;2024-03-02T02:00:39;99950.28;;;7.87;69.96
39891;BME280;25564;53.312;9.790;2024-03-02T02:03:10;99952.03;;;7.87;69.96
39891;BME280;25564;53.312;9.790;2024-03-02T02:05:44;99937.88;;;7.81;69.98
39891;BME280;25564;53.312;9.790;2024-03-02T02:08:18;99944.94;;;7.79;70.38
39891;BME280;25564;53.312;9.790;2024-03-02T02:10:51;99939.75;;;7.79;70.35
39891;BME280;25564;53.312;9.790;2024-03-02T02:13:22;99937.31;;;7.78;70.38
39891;BME280;25564;53.312;9.790;2024-03-02T02:16:09;99934.84;;;7.76;70.20
39891;BME280;25564;53.312;9.790;2024-03-02T02:18:41;99928.06;;;7.75;70.07
39891;BME280;25564;53.312;9.790;2024-03-02T02:21:13;99926.41;;;7.74;70.41
39891;BME280;25564;53.312;9.790;2024-03-02T02:23:46;99931.56;;;7.74;70.13
39891;BME280;25564;53.312;9.790;2024-03-02T02:26:20;99920.69;;;7.71;70.33
39891;BME280;25564;53.312;9.790;2024-03-02T02:28:51;99918.78;;;7.73;70.13
39891;BME280;25564;53.312;9.790;2024-03-02T02:31:24;99917.97;;;7.72;70.43
39891;BME280;25564;53.312;9.790;2024-03-02T02:33:56;99915.50;;;7.71;70.21
39891;BME280;25564;53.312;9.790;2024-03-02T02:36:27;99912.25;;;7.69;70.08
39891;BME280;25564;53.312;9.790;2024-03-02T02:39:02;99912.25;;;7.69;70.20
39891;BME280;25564;53.312;9.790;2024-03-02T02:41:39;99914.00;;;7.68;70.13
39891;BME280;25564;53.312;9.790;2024-03-02T02:44:10;99910.72;;;7.66;70.39
39891;BME280;25564;53.312;9.790;2024-03-02T02:46:47;99907.31;;;7.66;70.57
39891;BME280;25564;53.312;9.790;2024-03-02T02:49:18;99914.13;;;7.67;70.10
39891;BME280;25564;53.312;9.790;2024-03-02T02:51:52;99916.72;;;7.67;70.20
39891;BME280;25564;53.312;9.790;2024-03-02T02:54:23;99917.53;;;7.67;70.11
39891;BME280;25564;53.312;9.790;2024-03-02T02:56:55;99921.03;;;7.66;70.26
39891;BME280;25564;53.312;9.790;2024-03-02T02:59:27;99920.13;;;7.67;70.27
39891;BME280;25564;53.312;9.790;2024-03-02T03:01:58;99912.38;;;7.67;70.58
39891;BME280;25564;53.312;9.790;2024-03-02T03:04:33;99909.19;;;7.64;70.22
39891;BME280;25564;53.312;9.790;2024-03-02T03:07:05;99910.03;;;7.64;70.38
39891;BME280;25564;53.312;9.790;2024-03-02T03:09:37;99910.16;;;7.63;70.56
39891;BME280;25564;53.312;9.790;2024-03-02T03:12:10;99903.47;;;7.60;70.28
39891;BME280;25564;53.312;9.790;2024-03-02T03:14:42;99903.47;;;7.60;70.39
39891;BME280;25564;53.312;9.790;2024-03-02T03:17:14;99904.41;;;7.59;70.38
39891;BME280;25564;53.312;9.790;2024-03-02T03:19:46;99900.44;;;7.55;70.75
39891;BME280;25564;53.312;9.790;2024-03-02T03:22:17;99903.00;;;7.55;70.51
39891;BME280;25564;53.312;9.790;2024-03-02T03:24:49;99910.75;;;7.55;70.43
39891;BME280;25564;53.312;9.790;2024-03-02T03:27:21;99904.88;;;7.53;70.59
39891;BME280;25564;53.312;9.790;2024-03-02T03:29:55;99895.50;;;7.52;70.78
39891;BME280;25564;53.312;9.790;2024-03-02T03:32:27;99899.84;;;7.52;70.32
39891;BME280;25564;53.312;9.790;2024-03-02T03:35:01;99894.81;;;7.50;70.92
39891;BME280;25564;53.312;9.790;2024-03-02T03:37:32;99901.72;;;7.50;70.61
39891;BME280;25564;53.312;9.790;2024-03-02T03:40:06;99903.47;;;7.49;70.62
39891;BME280;25564;53.312;9.790;2024-03-02T03:42:42;99902.69;;;7.49;70.80
39891;BME280;25564;53.312;9.790;2024-03-02T03:45:14;99906.88;;;7.50;70.80
39891;BME280;25564;53.312;9.790;2024-03-02T03:47:45;99900.91;;;7.49;70.56
39891;BME280;25564;53.312;9.790;2024-03-02T03:50:17;99894.94;;;7.49;70.91
39891;BME280;25564;53.312;9.790;2024-03-02T03:52:50;99902.78;;;7.47;70.71
39891;BME280;25564;53.312;9.790;2024-03-02T03:55:21;99890.16;;;7.44;70.85
39891;BME280;25564;53.312;9.790;2024-03-02T03:57:53;99893.56;;;7.45;71.10
39891;BME280;25564;53.312;9.790;2024-03-02T04:00:26;99899.78;;;7.42;71.08
39891;BME280;25564;53.312;9.790;2024-03-02T04:02:58;99899.19;;;7.39;70.94
39891;BME280;25564;53.312;9.790;2024-03-02T04:05:29;99900.00;;;7.39;71.22
39891;BME280;25564;53.312;9.790;2024-03-02T04:08:01;99900.84;;;7.40;71.04
39891;BME280;25564;53.312;9.790;2024-03-02T04:10:33;99894.16;;;7.37;70.85
39891;BME280;25564;53.312;9.790;2024-03-02T04:13:05;99894.16;;;7.37;70.81
39891;BME280;25564;53.312;9.790;2024-03-02T04:15:37;99895.09;;;7.36;70.74
39891;BME280;25564;53.312;9.790;2024-03-02T04:18:09;99903.78;;;7.35;71.00
39891;BME280;25564;53.312;9.790;2024-03-02T04:20:43;99904.03;;;7.32;70.94
39891;BME280;25564;53.312;9.790;2024-03-02T04:23:14;99908.25;;;7.33;70.95
39891;BME280;25564;53.312;9.790;2024-03-02T04:25:46;99907.66;;;7.30;71.11
39891;BME280;25564;53.312;9.790;2024-03-02T04:28:18;99903.44;;;7.29;71.16
39891;BME280;25564;53.312;9.790;2024-03-02T04:30:52;99903.34;;;7.30;71.31
39891;BME280;25564;53.312;9.790;2024-03-02T04:33:24;99903.56;;;7.27;71.11
39891;BME280;25564;53.312;9.790;2024-03-02T04:35:58;99901.91;;;7.26;71.40
39891;BME280;25564;53.312;9.790;2024-03-02T04:38:30;99900.44;;;7.24;71.36
39891;BME280;25564;53.312;9.790;2024-03-02T04:41:06;99899.59;;;7.23;71.38
39891;BME280;25564;53.312;9.790;2024-03-02T04:43:37;99898.91;;;7.21;71.58
39891;BME280;25564;53.312;9.790;2024-03-02T04:46:09;99896.56;;;7.18;71.37
39891;BME280;25564;53.312;9.790;2024-03-02T04:48:42;99898.44;;;7.16;71.25
39891;BME280;25564;53.312;9.790;2024-03-02T04:51:14;99892.56;;;7.14;71.72
39891;BME280;25564;53.312;9.790;2024-03-02T04:53:46;99896.34;;;7.10;71.67
39891;BME280;25564;53.312;9.790;2024-03-02T04:56:19;99890.50;;;7.08;71.61
39891;BME280;25564;53.312;9.790;2024-03-02T04:59:03;99895.16;;;7.03;71.62
39891;BME280;25564;53.312;9.790;2024-03-02T05:01:34;99895.44;;;7.00;71.34
39891;BME280;25564;53.312;9.790;2024-03-02T05:04:07;99899.06;;;6.97;71.51
39891;BME280;25564;53.312;9.790;2024-03-02T05:06:39;99897.44;;;6.96;71.81
39891;BME280;25564;53.312;9.790;2024-03-02T05:09:14;99897.94;;;6.90;71.73
39891;BME280;25564;53.312;9.790;2024-03-02T05:11:47;99904.00;;;6.89;71.50
39891;BME280;25564;53.312;9.790;2024-03-02T05:14:36;99897.81;;;6.81;71.78
39891;BME280;25564;53.312;9.790;2024-03-02T05:17:08;99891.25;;;6.77;71.67
39891;BME280;25564;53.312;9.790;2024-03-02T05:19:40;99895.00;;;6.73;71.77
39891;BME280;25564;53.312;9.790;2024-03-02T05:22:13;99895.22;;;6.70;71.84
39891;BME280;25564;53.312;9.790;2024-03-02T05:24:45;99901.81;;;6.63;71.77
39891;BME280;25564;53.312;9.790;2024-03-02T05:27:17;99910.00;;;6.57;71.92
39891;BME280;25564;53.312;9.790;2024-03-02T05:29:48;99905.56;;;6.48;71.78
39891;BME280;25564;53.312;9.790;2024-03-02T05:32:20;99905.19;;;6.41;72.17
39891;BME280;25564;53.312;9.790;2024-03-02T05:34:52;99906.50;;;6.36;72.17
39891;BME280;25564;53.312;9.790;2024-03-02T05:37:23;99911.16;;;6.30;72.14
39891;BME280;25564;53.312;9.790;2024-03-02T05:39:55;99908.22;;;6.24;72.51
39891;BME280;25564;53.312;9.790;2024-03-02T05:42:27;99910.44;;;6.17;72.89
39891;BME280;25564;53.312;9.790;2024-03-02T05:44:59;99902.34;;;6.11;72.41
39891;BME280;25564;53.312;9.790;2024-03-02T05:47:31;99910.44;;;6.06;72.52
39891;BME280;25564;53.312;9.790;2024-03-02T05:50:04;99903.50;;;5.96;72.96
39891;BME280;25564;53.312;9.790;2024-03-02T05:52:39;99910.16;;;5.87;72.62
39891;BME280;25564;53.312;9.790;2024-03-02T05:55:10;99908.72;;;5.83;72.89
39891;BME280;25564;53.312;9.790;2024-03-02T05:57:41;99906.50;;;5.79;72.98
39891;BME280;25564;53.312;9.790;2024-03-02T06:00:16;99897.94;;;5.78;73.08
39891;BME280;25564;53.312;9.790;2024-03-02T06:02:51;99900.53;;;5.78;73.50
39891;BME280;25564;53.312;9.790;2024-03-02T06:05:23;99894.75;;;5.75;72.88
39891;BME280;25564;53.312;9.790;2024-03-02T06:07:57;99897.25;;;5.76;73.14
39891;BME280;25564;53.312;9.790;2024-03-02T06:10:28;99896.63;;;5.73;73.03
39891;BME280;25564;53.312;9.790;2024-03-02T06:13:00;99897.88;;;5.67;73.40
39891;BME280;25564;53.312;9.790;2024-03-02T06:15:33;99898.81;;;5.66;73.31
39891;BME280;25564;53.312;9.790;2024-03-02T06:18:07;99890.84;;;5.69;73.69
39891;BME280;25564;53.312;9.790;2024-03-02T06:20:41;99890.66;;;5.72;73.10
39891;BME280;25564;53.312;9.790;2024-03-02T06:23:12;99890.34;;;5.77;73.18
39891;BME280;25564;53.312;9.790;2024-03-02T06:25:44;99893.50;;;5.80;73.04
39891;BME280;25564;53.312;9.790;2024-03-02T06:28:15;99899.25;;;5.84;72.92
39891;BME280;25564;53.312;9.790;2024-03-02T06:30:48;99918.78;;;5.86;73.44
39891;BME280;25564;53.312;9.790;2024-03-02T06:33:20;99908.50;;;5.86;73.35
39891;BME280;25564;53.312;9.790;2024-03-02T06:35:53;99909.09;;;5.90;73.36
39891;BME280;25564;53.312;9.790;2024-03-02T06:38:25;99908.88;;;5.93;73.00
39891;BME280;25564;53.312;9.790;2024-03-02T06:40:57;99936.72;;;5.99;73.05
39891;BME280;25564;53.312;9.790;2024-03-02T06:43:30;99937.44;;;6.01;73.09
39891;BME280;25564;53.312;9.790;2024-03-02T06:46:02;99926.91;;;6.04;73.12
39891;BME280;25564;53.312;9.790;2024-03-02T06:48:34;99949.50;;;6.11;73.30
39891;BME280;25564;53.312;9.790;2024-03-02T06:51:06;99938.75;;;6.17;73.14
39891;BME280;25564;53.312;9.790;2024-03-02T06:53:38;99946.97;;;6.22;73.08
39891;BME280;25564;53.312;9.790;2024-03-02T06:56:09;99938.91;;;6.27;73.30
39891;BME280;25564;53.312;9.790;2024-03-02T06:58:42;99956.69;;;6.30;73.08
39891;BME280;25564;53.312;9.790;2024-03-02T07:01:14;99947.91;;;6.32;72.76
39891;BME280;25564;53.312;9.790;2024-03-02T07:03:46;99946.03;;;6.35;73.02
39891;BME280;25564;53.312;9.790;2024-03-02T07:06:17;99948.41;;;6.38;72.79
39891;BME280;25564;53.312;9.790;2024-03-02T07:08:49;99947.94;;;6.44;72.99
39891;BME280;25564;53.312;9.790;2024-03-02T07:11:21;99949.00;;;6.52;72.75
39891;BME280;25564;53.312;9.790;2024-03-02T07:13:53;99947.72;;;6.58;72.80
39891;BME280;25564;53.312;9.790;2024-03-02T07:16:24;99953.78;;;6.68;72.72
39891;BME280;25564;53.312;9.790;2024-03-02T07:19:04;99953.56;;;6.71;72.64
39891;BME280;25564;53.312;9.790;2024-03-02T07:21:36;99951.22;;;6.79;72.64
39891;BME280;25564;53.312;9.790;2024-03-02T07:24:09;99955.06;;;6.84;72.60
39891;BME280;25564;53.312;9.790;2024-03-02T07:26:44;99960.59;;;6.91;72.70
39891;BME280;25564;53.312;9.790;2024-03-02T07:29:19;99963.38;;;6.99;72.73
39891;BME280;25564;53.312;9.790;2024-03-02T07:31:51;99961.06;;;7.07;72.40
39891;BME280;25564;53.312;9.790;2024-03-02T07:34:22;99964.66;;;7.16;72.40
39891;BME280;25564;53.312;9.790;2024-03-02T07:36:55;99963.72;;;7.28;72.35
39891;BME280;25564;53.312;9.790;2024-03-02T07:39:27;99974.00;;;7.39;72.20
39891;BME280;25564;53.312;9.790;2024-03-02T07:41:59;99968.25;;;7.46;72.10
39891;BME280;25564;53.312;9.790;2024-03-02T07:44:31;99978.41;;;7.59;71.79
39891;BME280;25564;53.312;9.790;2024-03-02T07:47:03;99979.34;;;7.69;71.79
39891;BME280;25564;53.312;9.790;2024-03-02T07:49:35;99977.22;;;7.74;71.63
39891;BME280;25564;53.312;9.790;2024-03-02T07:52:07;99984.34;;;7.81;71.37
39891;BME280;25564;53.312;9.790;2024-03-02T07:54:39;99983.16;;;7.85;71.67
39891;BME280;25564;53.312;9.790;2024-03-02T07:57:12;99980.06;;;7.92;71.53
39891;BME280;25564;53.312;9.790;2024-03-02T07:59:44;99984.03;;;7.96;71.13
39891;BME280;25564;53.312;9.790;2024-03-02T08:02:16;99980.41;;;7.98;71.51
39891;BME280;25564;53.312;9.790;2024-03-02T08:04:49;99979.34;;;8.01;71.27
39891;BME280;25564;53.312;9.790;2024-03-02T08:07:21;99980.03;;;8.03;71.17
39891;BME280;25564;53.312;9.790;2024-03-02T08:09:55;99984.81;;;8.07;70.80
39891;BME280;25564;53.312;9.790;2024-03-02T08:12:26;99982.66;;;8.12;70.77
39891;BME280;25564;53.312;9.790;2024-03-02T08:14:58;99990.06;;;8.17;71.11
39891;BME280;25564;53.312;9.790;2024-03-02T08:17:30;99989.81;;;8.20;70.60
39891;BME280;25564;53.312;9.790;2024-03-02T08:20:06;99991.06;;;8.25;70.50
39891;BME280;25564;53.312;9.790;2024-03-02T08:22:40;99982.25;;;8.28;70.89
39891;BME280;25564;53.312;9.790;2024-03-02T08:25:12;99994.53;;;8.35;70.55
39891;BME280;25564;53.312;9.790;2024-03-02T08:27:43;99996.72;;;8.40;70.71
39891;BME280;25564;53.312;9.790;2024-03-02T08:30:15;99992.94;;;8.44;69.97
39891;BME280;25564;53.312;9.790;2024-03-02T08:32:47;99996.91;;;8.48;69.98
39891;BME280;25564;53.312;9.790;2024-03-02T08:35:19;99997.09;;;8.56;70.11
39891;BME280;25564;53.312;9.790;2024-03-02T08:37:50;99995.41;;;8.66;69.88
39891;BME280;25564;53.312;9.790;2024-03-02T08:40:23;99999.91;;;8.74;70.10
39891;BME280;25564;53.312;9.790;2024-03-02T08:42:57;100002.53;;;8.83;70.29
39891;BME280;25564;53.312;9.790;2024-03-02T08:45:29;100002.59;;;8.93;69.70
39891;BME280;25564;53.312;9.790;2024-03-02T08:48:01;100005.47;;;8.99;69.81
39891;BME280;25564;53.312;9.790;2024-03-02T08:50:32;100008.78;;;9.11;69.29
39891;BME280;25564;53.312;9.790;2024-03-02T08:53:04;100008.84;;;9.20;69.07
39891;BME280;25564;53.312;9.790;2024-03-02T08:55:35;100013.81;;;9.33;69.05
39891;BME280;25564;53.312;9.790;2024-03-02T08:58:09;100008.78;;;9.51;69.16
39891;BME280;25564;53.312;9.790;2024-03-02T09:00:43;100015.06;;;9.67;68.51
39891;BME280;25564;53.312;9.790;2024-03-02T09:03:15;100015.25;;;9.85;68.42
39891;BME280;25564;53.312;9.790;2024-03-02T09:05:48;100014.72;;;10.00;68.02
39891;BME280;25564;53.312;9.790;2024-03-02T09:08:20;100008.69;;;10.19;68.02
39891;BME280;25564;53.312;9.790;2024-03-02T09:10:52;99998.84;;;10.32;67.34
39891;BME280;25564;53.312;9.790;2024-03-02T09:13:24;100003.50;;;10.38;67.19
39891;BME280;25564;53.312;9.790;2024-03-02T09:15:58;100012.19;;;10.47;67.15
39891;BME280;25564;53.312;9.790;2024-03-02T09:18:29;100013.00;;;10.66;67.39
39891;BME280;25564;53.312;9.790;2024-03-02T09:21:01;100010.50;;;10.84;66.56
39891;BME280;25564;53.312;9.790;2024-03-02T09:23:33;100014.25;;;10.99;66.43
39891;BME280;25564;53.312;9.790;2024-03-02T09:26:05;100018.00;;;11.14;66.08
39891;BME280;25564;53.312;9.790;2024-03-02T09:28:36;100016.72;;;11.28;65.60
39891;BME280;25564;53.312;9.790;2024-03-02T09:31:11;100023.63;;;11.37;65.40
39891;BME280;25564;53.312;9.790;2024-03-02T09:33:45;100014.59;;;11.41;65.11
39891;BME280;25564;53.312;9.790;2024-03-02T09:36:18;100017.59;;;11.46;65.09
39891;BME280;25564;53.312;9.790;2024-03-02T09:38:50;100022.78;;;11.46;65.00
39891;BME280;25564;53.312;9.790;2024-03-02T09:41:22;100008.25;;;11.53;64.94
39891;BME280;25564;53.312;9.790;2024-03-02T09:43:54;100021.16;;;11.62;64.56
39891;BME280;25564;53.312;9.790;2024-03-02T09:46:26;100012.66;;;11.70;64.47
39891;BME280;25564;53.312;9.790;2024-03-02T09:48:58;100016.03;;;11.80;64.02
39891;BME280;25564;53.312;9.790;2024-03-02T09:51:31;100009.84;;;11.81;63.74
39891;BME280;25564;53.312;9.790;2024-03-02T09:54:02;100015.44;;;11.86;63.58
39891;BME280;25564;53.312;9.790;2024-03-02T09:56:49;100013.19;;;11.91;63.69
39891;BME280;25564;53.312;9.790;2024-03-02T09:59:20;100009.88;;;11.99;63.44
39891;BME280;25564;53.312;9.790;2024-03-02T10:02:00;100008.31;;;12.06;62.86
39891;BME280;25564;53.312;9.790;2024-03-02T10:04:34;100009.47;;;12.11;62.81
39891;BME280;25564;53.312;9.790;2024-03-02T10:07:10;100009.25;;;12.22;62.40
39891;BME280;25564;53.312;9.790;2024-03-02T10:09:47;100010.88;;;12.23;62.42
39891;BME280;25564;53.312;9.790;2024-03-02T10:12:19;100012.66;;;12.23;62.42
39891;BME280;25564;53.312;9.790;2024-03-02T10:15:03;100009.09;;;12.24;62.12
39891;BME280;25564;53.312;9.790;2024-03-02T10:17:35;100021.13;;;12.25;62.00
39891;BME280;25564;53.312;9.790;2024-03-02T10:20:26;100027.56;;;12.38;61.73
39891;BME280;25564;53.312;9.790;2024-03-02T10:23:14;100023.09;;;12.48;61.66
39891;BME280;25564;53.312;9.790;2024-03-02T10:25:46;100023.69;;;12.60;61.73
39891;BME280;25564;53.312;9.790;2024-03-02T10:28:28;100027.00;;;12.70;61.44
39891;BME280;25564;53.312;9.790;2024-03-02T10:31:01;100027.19;;;12.77;61.01
39891;BME280;25564;53.312;9.790;2024-03-02T10:33:36;100025.94;;;12.89;60.63
39891;BME280;25564;53.312;9.790;2024-03-02T10:36:08;100029.28;;;12.99;60.32
39891;BME280;25564;53.312;9.790;2024-03-02T10:38:40;100025.44;;;13.11;59.85
39891;BME280;25564;53.312;9.790;2024-03-02T10:41:12;100029.22;;;13.16;59.67
39891;BME280;25564;53.312;9.790;2024-03-02T10:43:44;100026.13;;;13.21;59.55
39891;BME280;25564;53.312;9.790;2024-03-02T10:46:22;100027.16;;;13.36;59.37
39891;BME280;25564;53.312;9.790;2024-03-02T10:49:00;100032.09;;;13.47;59.24
39891;BME280;25564;53.312;9.790;2024-03-02T10:51:37;100035.03;;;13.52;59.19
39891;BME280;25564;53.312;9.790;2024-03-02T10:54:14;100036.34;;;13.56;59.20
39891;BME280;25564;53.312;9.790;2024-03-02T10:56:46;100038.97;;;13.64;58.71
39891;BME280;25564;53.312;9.790;2024-03-02T10:59:28;100037.69;;;13.68;58.20
39891;BME280;25564;53.312;9.790;2024-03-02T11:02:03;100033.28;;;13.61;58.11
39891;BME280;25564;53.312;9.790;2024-03-02T11:04:38;100031.47;;;13.61;57.91
39891;BME280;25564;53.312;9.790;2024-03-02T11:07:11;100036.53;;;13.63;57.71
39891;BME280;25564;53.312;9.790;2024-03-02T11:10:01;100041.13;;;13.69;57.55
39891;BME280;25564;53.312;9.790;2024-03-02T11:12:53;100041.91;;;13.69;57.49
39891;BME280;25564;53.312;9.790;2024-03-02T11:15:27;100042.53;;;13.63;57.51
39891;BME280;25564;53.312;9.790;2024-03-02T11:18:00;100043.84;;;13.59;57.16
39891;BME280;25564;53.312;9.790;2024-03-02T11:20:32;100038.97;;;13.64;57.33
39891;BME280;25564;53.312;9.790;2024-03-02T11:23:08;100041.59;;;13.72;56.80
39891;BME280;25564;53.312;9.790;2024-03-02T11:25:40;100053.50;;;13.75;56.95
39891;BME280;25564;53.312;9.790;2024-03-02T11:28:12;100056.28;;;13.81;57.19
39891;BME280;25564;53.312;9.790;2024-03-02T11:33:23;100051.97;;;14.06;56.63
39891;BME280;25564;53.312;9.790;2024-03-02T11:35:56;100048.88;;;14.18;56.87
39891;BME280;25564;53.312;9.790;2024-03-02T11:38:33;100044.66;;;14.26;55.75
39891;BME280;25564;53.312;9.790;2024-03-02T11:41:07;100045.91;;;14.22;55.73
39891;BME280;25564;53.312;9.790;2024-03-02T11:43:41;100047.22;;;14.17;55.75
39891;BME280;25564;53.312;9.790;2024-03-02T11:46:21;100045.44;;;14.26;55.69
39891;BME280;25564;53.312;9.790;2024-03-02T11:48:54;100057.69;;;14.34;55.60
39891;BME280;25564;53.312;9.790;2024-03-02T11:51:26;100045.28;;;14.36;55.08
39891;BME280;25564;53.312;9.790;2024-03-02T11:53:58;100050.16;;;14.39;55.11
39891;BME280;25564;53.312;9.790;2024-03-02T11:56:31;100044.81;;;14.40;54.86
39891;BME280;25564;53.312;9.790;2024-03-02T11:59:03;100038.09;;;14.46;54.61
39891;BME280;25564;53.312;9.790;2024-03-02T12:01:36;100033.53;;;14.48;54.76
39891;BME280;25564;53.312;9.790;2024-03-02T12:04:08;100036.16;;;14.48;54.43
39891;BME280;25564;53.312;9.790;2024-03-02T12:06:41;100036.31;;;14.46;54.18
39891;BME280;25564;53.312;9.790;2024-03-02T12:09:16;100032.25;;;14.44;54.45
39891;BME280;25564;53.312;9.790;2024-03-02T12:11:47;100031.25;;;14.45;54.13
39891;BME280;25564;53.312;9.790;2024-03-02T12:14:21;100037.78;;;14.33;53.97
39891;BME280;25564;53.312;9.790;2024-03-02T12:16:53;100039.91;;;14.21;54.15
39891;BME280;25564;53.312;9.790;2024-03-02T12:19:27;100031.56;;;14.17;54.15
39891;BME280;25564;53.312;9.790;2024-03-02T12:22:01;100030.94;;;14.15;54.22
39891;BME280;25564;53.312;9.790;2024-03-02T12:24:33;100021.16;;;14.17;54.24
39891;BME280;25564;53.312;9.790;2024-03-02T12:27:07;100027.34;;;14.25;54.56
39891;BME280;25564;53.312;9.790;2024-03-02T12:29:40;100024.09;;;14.23;54.33
39891;BME280;25564;53.312;9.790;2024-03-02T12:32:11;100029.78;;;14.18;54.18
39891;BME280;25564;53.312;9.790;2024-03-02T12:34:46;100022.78;;;14.18;54.17
39891;BME280;25564;53.312;9.790;2024-03-02T12:37:20;100028.66;;;14.21;54.31
39891;BME280;25564;53.312;9.790;2024-03-02T12:39:52;100015.44;;;14.22;54.08
39891;BME280;25564;53.312;9.790;2024-03-02T12:42:24;100017.56;;;14.18;53.89
39891;BME280;25564;53.312;9.790;2024-03-02T12:44:58;100011.06;;;14.06;54.05
39891;BME280;25564;53.312;9.790;2024-03-02T12:47:30;100012.69;;;13.99;53.92
39891;BME280;25564;53.312;9.790;2024-03-02T12:50:02;100010.69;;;13.93;53.79
39891;BME280;25564;53.312;9.790;2024-03-02T12:52:35;100010.50;;;13.95;54.02
39891;BME280;25564;53.312;9.790;2024-03-02T12:55:07;100014.31;;;14.00;53.89
39891;BME280;25564;53.312;9.790;2024-03-02T12:57:39;100019.19;;;14.03;53.96
39891;BME280;25564;53.312;9.790;2024-03-02T13:00:18;100005.84;;;14.14;53.98
39891;BME280;25564;53.312;9.790;2024-03-02T13:02:50;100003.53;;;14.19;53.97
39891;BME280;25564;53.312;9.790;2024-03-02T13:05:24;100008.91;;;14.26;53.80
39891;BME280;25564;53.312;9.790;2024-03-02T13:07:58;100005.66;;;14.24;53.55
39891;BME280;25564;53.312;9.790;2024-03-02T13:10:31;100010.06;;;14.32;53.38
39891;BME280;25564;53.312;9.790;2024-03-02T13:13:03;100013.97;;;14.36;53.36
39891;BME280;25564;53.312;9.790;2024-03-02T13:15:35;100017.25;;;14.38;52.92
39891;BME280;25564;53.312;9.790;2024-03-02T13:18:07;100004.84;;;14.40;52.95
39891;BME280;25564;53.312;9.790;2024-03-02T13:20:39;100008.41;;;14.47;53.00
39891;BME280;25564;53.312;9.790;2024-03-02T13:23:11;100007.78;;;14.53;52.41
39891;BME280;25564;53.312;9.790;2024-03-02T13:25:43;100006.47;;;14.57;52.39
39891;BME280;25564;53.312;9.790;2024-03-02T13:28:14;100001.41;;;14.63;52.87
39891;BME280;25564;53.312;9.790;2024-03-02T13:30:47;100012.47;;;14.73;52.58
39891;BME280;25564;53.312;9.790;2024-03-02T13:33:19;100003.97;;;14.79;52.64
39891;BME280;25564;53.312;9.790;2024-03-02T13:35:54;100000.84;;;14.84;52.62